sensor_id;sensor_type;location;lat;lon;timestamp;P1;durP1;ratioP1;P2;durP2;ratioP2
3843;SDS011;1937;51.444;6.484;2024-02-28T00:00:07;45.93;;;21.40;;
3843;SDS011;1937;51.444;6.484;2024-02-28T00:02:35;51.97;;;21.73;;
3843;SDS011;1937;51.444;6.484;2024-02-28T00:05:02;46.97;;;19.07;;
3843;SDS011;1937;51.444;6.484;2024-02-28T00:07:29;49.07;;;21.07;;
3843;SDS011;1937;51.444;6.484;2024-02-28T00:09:56;71.90;;;21.17;;
3843;SDS011;1937;51.444;6.484;2024-02-28T00:12:23;54.70;;;19.43;;
3843;SDS011;1937;51.444;6.484;2024-02-28T00:14:52;39.20;;;16.13;;
3843;SDS011;1937;51.444;6.484;2024-02-28T00:17:19;59.47;;;19.07;;
3843;SDS011;1937;51.444;6.484;2024-02-28T00:19:45;54.50;;;17.70;;
3843;SDS011;1937;51.444;6.484;2024-02-28T00:22:12;77.33;;;21.47;;
3843;SDS011;1937;51.444;6.484;2024-02-28T00:24:39;32.03;;;16.43;;
3843;SDS011;1937;51.444;6.484;2024-02-28T00:27:06;38.03;;;17.80;;
3843;SDS011;1937;51.444;6.484;2024-02-28T00:29:33;43.93;;;17.90;;
3843;SDS011;1937;51.444;6.484;2024-02-28T00:32:01;46.40;;;16.10;;
3843;SDS011;1937;51.444;6.484;2024-02-28T00:34:27;50.00;;;19.87;;
3843;SDS011;1937;51.444;6.484;2024-02-28T00:36:54;49.43;;;19.23;;
3843;SDS011;1937;51.444;6.484;2024-02-28T00:39:21;49.67;;;16.57;;
3843;SDS011;1937;51.444;6.484;2024-02-28T00:41:47;51.70;;;16.27;;
3843;SDS011;1937;51.444;6.484;2024-02-28T00:44:14;35.13;;;16.37;;
3843;SDS011;1937;51.444;6.484;2024-02-28T00:46:40;45.27;;;17.13;;
3843;SDS011;1937;51.444;6.484;2024-02-28T00:49:08;38.70;;;17.67;;
3843;SDS011;1937;51.444;6.484;2024-02-28T00:51:35;43.53;;;20.23;;
3843;SDS011;1937;51.444;6.484;2024-02-28T00:54:02;48.00;;;20.93;;
3843;SDS011;1937;51.444;6.484;2024-02-28T00:56:29;51.30;;;17.73;;
3843;SDS011;1937;51.444;6.484;2024-02-28T00:58:57;35.93;;;16.37;;
3843;SDS011;1937;51.444;6.484;2024-02-28T01:01:23;76.20;;;20.30;;
3843;SDS011;1937;51.444;6.484;2024-02-28T01:03:50;43.67;;;18.77;;
3843;SDS011;1937;51.444;6.484;2024-02-28T01:06:18;63.67;;;18.50;;
3843;SDS011;1937;51.444;6.484;2024-02-28T01:08:44;23.50;;;14.43;;
3843;SDS011;1937;51.444;6.484;2024-02-28T01:11:11;67.03;;;19.10;;
3843;SDS011;1937;51.444;6.484;2024-02-28T01:13:37;71.60;;;21.80;;
3843;SDS011;1937;51.444;6.484;2024-02-28T01:16:04;70.43;;;21.20;;
3843;SDS011;1937;51.444;6.484;2024-02-28T01:18:31;79.87;;;20.43;;
3843;SDS011;1937;51.444;6.484;2024-02-28T01:20:57;81.63;;;23.67;;
3843;SDS011;1937;51.444;6.484;2024-02-28T01:23:25;79.73;;;23.27;;
3843;SDS011;1937;51.444;6.484;2024-02-28T01:25:52;57.43;;;19.17;;
3843;SDS011;1937;51.444;6.484;2024-02-28T01:28:19;69.70;;;22.90;;
3843;SDS011;1937;51.444;6.484;2024-02-28T01:30:45;50.87;;;16.97;;
3843;SDS011;1937;51.444;6.484;2024-02-28T01:33:12;75.23;;;18.83;;
3843;SDS011;1937;51.444;6.484;2024-02-28T01:35:38;63.50;;;18.30;;
3843;SDS011;1937;51.444;6.484;2024-02-28T01:38:05;51.00;;;17.83;;
3843;SDS011;1937;51.444;6.484;2024-02-28T01:40:33;46.10;;;15.60;;
3843;SDS011;1937;51.444;6.484;2024-02-28T01:43:03;35.53;;;15.80;;
3843;SDS011;1937;51.444;6.484;2024-02-28T01:45:30;40.17;;;17.73;;
3843;SDS011;1937;51.444;6.484;2024-02-28T01:47:56;103.17;;;21.70;;
3843;SDS011;1937;51.444;6.484;2024-02-28T01:50:23;52.90;;;20.03;;
3843;SDS011;1937;51.444;6.484;2024-02-28T01:52:49;54.20;;;17.00;;
3843;SDS011;1937;51.444;6.484;2024-02-28T01:55:17;80.43;;;22.80;;
3843;SDS011;1937;51.444;6.484;2024-02-28T01:57:45;53.03;;;16.83;;
3843;SDS011;1937;51.444;6.484;2024-02-28T02:00:11;63.57;;;18.83;;
3843;SDS011;1937;51.444;6.484;2024-02-28T02:02:39;45.03;;;17.40;;
3843;SDS011;1937;51.444;6.484;2024-02-28T02:05:06;45.13;;;14.73;;
3843;SDS011;1937;51.444;6.484;2024-02-28T02:07:34;76.53;;;19.50;;
3843;SDS011;1937;51.444;6.484;2024-02-28T02:10:01;29.63;;;15.40;;
3843;SDS011;1937;51.444;6.484;2024-02-28T02:12:28;33.23;;;16.10;;
3843;SDS011;1937;51.444;6.484;2024-02-28T02:14:56;40.20;;;18.67;;
3843;SDS011;1937;51.444;6.484;2024-02-28T02:17:22;43.17;;;17.83;;
3843;SDS011;1937;51.444;6.484;2024-02-28T02:19:49;39.00;;;17.10;;
3843;SDS011;1937;51.444;6.484;2024-02-28T02:22:16;60.20;;;18.30;;
3843;SDS011;1937;51.444;6.484;2024-02-28T02:24:46;27.43;;;14.17;;
3843;SDS011;1937;51.444;6.484;2024-02-28T02:27:12;38.60;;;16.87;;
3843;SDS011;1937;51.444;6.484;2024-02-28T02:29:39;44.17;;;19.60;;
3843;SDS011;1937;51.444;6.484;2024-02-28T02:32:06;87.27;;;23.30;;
3843;SDS011;1937;51.444;6.484;2024-02-28T02:34:32;48.57;;;20.40;;
3843;SDS011;1937;51.444;6.484;2024-02-28T02:36:59;39.13;;;17.80;;
3843;SDS011;1937;51.444;6.484;2024-02-28T02:39:26;54.57;;;18.60;;
3843;SDS011;1937;51.444;6.484;2024-02-28T02:41:53;59.20;;;20.13;;
3843;SDS011;1937;51.444;6.484;2024-02-28T02:44:20;53.40;;;18.30;;
3843;SDS011;1937;51.444;6.484;2024-02-28T02:46:46;51.70;;;18.37;;
3843;SDS011;1937;51.444;6.484;2024-02-28T02:49:13;61.13;;;19.30;;
3843;SDS011;1937;51.444;6.484;2024-02-28T02:51:40;77.87;;;20.43;;
3843;SDS011;1937;51.444;6.484;2024-02-28T02:54:08;61.43;;;20.20;;
3843;SDS011;1937;51.444;6.484;2024-02-28T02:56:34;73.97;;;22.00;;
3843;SDS011;1937;51.444;6.484;2024-02-28T02:59:02;106.70;;;23.00;;
3843;SDS011;1937;51.444;6.484;2024-02-28T03:01:29;110.20;;;27.03;;
3843;SDS011;1937;51.444;6.484;2024-02-28T03:03:55;140.63;;;27.20;;
3843;SDS011;1937;51.444;6.484;2024-02-28T03:06:22;116.20;;;27.87;;
3843;SDS011;1937;51.444;6.484;2024-02-28T03:08:49;145.77;;;27.17;;
3843;SDS011;1937;51.444;6.484;2024-02-28T03:11:16;151.93;;;28.20;;
3843;SDS011;1937;51.444;6.484;2024-02-28T03:13:42;145.53;;;27.57;;
3843;SDS011;1937;51.444;6.484;2024-02-28T03:16:10;166.50;;;32.30;;
3843;SDS011;1937;51.444;6.484;2024-02-28T03:18:36;115.73;;;26.87;;
3843;SDS011;1937;51.444;6.484;2024-02-28T03:21:03;112.23;;;29.80;;
3843;SDS011;1937;51.444;6.484;2024-02-28T03:23:30;112.87;;;28.00;;
3843;SDS011;1937;51.444;6.484;2024-02-28T03:25:57;124.53;;;30.70;;
3843;SDS011;1937;51.444;6.484;2024-02-28T03:28:23;102.90;;;29.93;;
3843;SDS011;1937;51.444;6.484;2024-02-28T03:30:50;169.03;;;30.90;;
3843;SDS011;1937;51.444;6.484;2024-02-28T03:33:17;167.13;;;34.40;;
3843;SDS011;1937;51.444;6.484;2024-02-28T03:35:44;173.47;;;32.10;;
3843;SDS011;1937;51.444;6.484;2024-02-28T03:38:11;114.10;;;31.10;;
3843;SDS011;1937;51.444;6.484;2024-02-28T03:40:37;182.00;;;39.23;;
3843;SDS011;1937;51.444;6.484;2024-02-28T03:43:04;191.13;;;35.80;;
3843;SDS011;1937;51.444;6.484;2024-02-28T03:45:30;173.57;;;32.50;;
3843;SDS011;1937;51.444;6.484;2024-02-28T03:48:02;178.47;;;37.50;;
3843;SDS011;1937;51.444;6.484;2024-02-28T03:50:31;149.03;;;31.43;;
3843;SDS011;1937;51.444;6.484;2024-02-28T03:52:57;98.77;;;30.40;;
3843;SDS011;1937;51.444;6.484;2024-02-28T03:55:24;236.43;;;42.63;;
3843;SDS011;1937;51.444;6.484;2024-02-28T03:57:50;345.70;;;52.40;;
3843;SDS011;1937;51.444;6.484;2024-02-28T04:00:17;180.03;;;36.63;;
3843;SDS011;1937;51.444;6.484;2024-02-28T04:02:44;214.37;;;43.23;;
3843;SDS011;1937;51.444;6.484;2024-02-28T04:05:10;124.30;;;33.70;;
3843;SDS011;1937;51.444;6.484;2024-02-28T04:07:38;93.70;;;32.50;;
3843;SDS011;1937;51.444;6.484;2024-02-28T04:10:05;101.73;;;35.07;;
3843;SDS011;1937;51.444;6.484;2024-02-28T04:12:33;124.80;;;34.50;;
3843;SDS011;1937;51.444;6.484;2024-02-28T04:14:59;110.63;;;31.17;;
3843;SDS011;1937;51.444;6.484;2024-02-28T04:17:26;131.87;;;34.30;;
3843;SDS011;1937;51.444;6.484;2024-02-28T04:19:52;135.90;;;34.07;;
3843;SDS011;1937;51.444;6.484;2024-02-28T04:22:18;114.80;;;32.20;;
3843;SDS011;1937;51.444;6.484;2024-02-28T04:24:46;89.83;;;30.30;;
3843;SDS011;1937;51.444;6.484;2024-02-28T04:27:12;106.87;;;32.17;;
3843;SDS011;1937;51.444;6.484;2024-02-28T04:29:39;118.30;;;35.97;;
3843;SDS011;1937;51.444;6.484;2024-02-28T04:32:06;125.87;;;33.43;;
3843;SDS011;1937;51.444;6.484;2024-02-28T04:34:32;107.07;;;32.00;;
3843;SDS011;1937;51.444;6.484;2024-02-28T04:36:59;143.57;;;34.37;;
3843;SDS011;1937;51.444;6.484;2024-02-28T04:39:25;133.20;;;36.40;;
3843;SDS011;1937;51.444;6.484;2024-02-28T04:41:53;139.43;;;33.77;;
3843;SDS011;1937;51.444;6.484;2024-02-28T04:44:20;103.43;;;32.87;;
3843;SDS011;1937;51.444;6.484;2024-02-28T04:46:46;142.33;;;37.47;;
3843;SDS011;1937;51.444;6.484;2024-02-28T04:49:13;90.30;;;30.20;;
3843;SDS011;1937;51.444;6.484;2024-02-28T04:51:39;167.10;;;37.73;;
3843;SDS011;1937;51.444;6.484;2024-02-28T04:54:06;131.03;;;36.60;;
3843;SDS011;1937;51.444;6.484;2024-02-28T04:56:33;101.73;;;34.97;;
3843;SDS011;1937;51.444;6.484;2024-02-28T04:59:00;136.10;;;35.47;;
3843;SDS011;1937;51.444;6.484;2024-02-28T05:01:28;166.77;;;39.47;;
3843;SDS011;1937;51.444;6.484;2024-02-28T05:03:55;172.43;;;34.33;;
3843;SDS011;1937;51.444;6.484;2024-02-28T05:06:21;156.93;;;34.57;;
3843;SDS011;1937;51.444;6.484;2024-02-28T05:08:48;82.30;;;32.17;;
3843;SDS011;1937;51.444;6.484;2024-02-28T05:11:14;98.10;;;33.00;;
3843;SDS011;1937;51.444;6.484;2024-02-28T05:13:41;122.87;;;34.53;;
3843;SDS011;1937;51.444;6.484;2024-02-28T05:16:13;111.60;;;33.40;;
3843;SDS011;1937;51.444;6.484;2024-02-28T05:18:39;112.60;;;32.37;;
3843;SDS011;1937;51.444;6.484;2024-02-28T05:21:06;89.40;;;29.70;;
3843;SDS011;1937;51.444;6.484;2024-02-28T05:23:33;113.73;;;32.53;;
3843;SDS011;1937;51.444;6.484;2024-02-28T05:26:00;89.10;;;31.97;;
3843;SDS011;1937;51.444;6.484;2024-02-28T05:28:29;105.47;;;30.03;;
3843;SDS011;1937;51.444;6.484;2024-02-28T05:30:55;134.13;;;33.40;;
3843;SDS011;1937;51.444;6.484;2024-02-28T05:33:23;108.03;;;34.87;;
3843;SDS011;1937;51.444;6.484;2024-02-28T05:35:49;86.53;;;31.27;;
3843;SDS011;1937;51.444;6.484;2024-02-28T05:38:15;126.27;;;32.20;;
3843;SDS011;1937;51.444;6.484;2024-02-28T05:40:42;95.07;;;30.80;;
3843;SDS011;1937;51.444;6.484;2024-02-28T05:43:08;92.97;;;31.90;;
3843;SDS011;1937;51.444;6.484;2024-02-28T05:45:35;110.67;;;32.63;;
3843;SDS011;1937;51.444;6.484;2024-02-28T05:48:01;125.07;;;35.33;;
3843;SDS011;1937;51.444;6.484;2024-02-28T05:50:29;128.23;;;36.13;;
3843;SDS011;1937;51.444;6.484;2024-02-28T05:52:57;105.07;;;33.57;;
3843;SDS011;1937;51.444;6.484;2024-02-28T05:55:24;107.20;;;31.97;;
3843;SDS011;1937;51.444;6.484;2024-02-28T05:57:51;180.37;;;35.10;;
3843;SDS011;1937;51.444;6.484;2024-02-28T06:00:18;87.87;;;28.17;;
3843;SDS011;1937;51.444;6.484;2024-02-28T06:02:45;106.17;;;32.77;;
3843;SDS011;1937;51.444;6.484;2024-02-28T06:05:11;134.67;;;31.60;;
3843;SDS011;1937;51.444;6.484;2024-02-28T06:07:39;82.40;;;27.10;;
3843;SDS011;1937;51.444;6.484;2024-02-28T06:10:07;88.83;;;29.90;;
3843;SDS011;1937;51.444;6.484;2024-02-28T06:12:35;98.80;;;29.97;;
3843;SDS011;1937;51.444;6.484;2024-02-28T06:15:02;86.70;;;29.87;;
3843;SDS011;1937;51.444;6.484;2024-02-28T06:17:30;110.77;;;34.50;;
3843;SDS011;1937;51.444;6.484;2024-02-28T06:19:56;97.17;;;32.63;;
3843;SDS011;1937;51.444;6.484;2024-02-28T06:22:23;101.70;;;32.53;;
3843;SDS011;1937;51.444;6.484;2024-02-28T06:24:51;120.47;;;32.77;;
3843;SDS011;1937;51.444;6.484;2024-02-28T06:27:18;106.10;;;31.47;;
3843;SDS011;1937;51.444;6.484;2024-02-28T06:29:44;81.27;;;30.83;;
3843;SDS011;1937;51.444;6.484;2024-02-28T06:32:11;126.23;;;32.50;;
3843;SDS011;1937;51.444;6.484;2024-02-28T06:34:37;78.03;;;27.60;;
3843;SDS011;1937;51.444;6.484;2024-02-28T06:37:04;75.73;;;28.00;;
3843;SDS011;1937;51.444;6.484;2024-02-28T06:39:30;102.93;;;31.13;;
3843;SDS011;1937;51.444;6.484;2024-02-28T06:41:58;123.90;;;32.27;;
3843;SDS011;1937;51.444;6.484;2024-02-28T06:44:25;131.50;;;32.70;;
3843;SDS011;1937;51.444;6.484;2024-02-28T06:46:51;142.43;;;32.87;;
3843;SDS011;1937;51.444;6.484;2024-02-28T06:49:18;158.40;;;37.90;;
3843;SDS011;1937;51.444;6.484;2024-02-28T06:51:45;124.03;;;33.40;;
3843;SDS011;1937;51.444;6.484;2024-02-28T06:54:11;71.80;;;25.80;;
3843;SDS011;1937;51.444;6.484;2024-02-28T06:56:38;97.37;;;32.60;;
3843;SDS011;1937;51.444;6.484;2024-02-28T06:59:06;70.20;;;26.20;;
3843;SDS011;1937;51.444;6.484;2024-02-28T07:01:33;121.77;;;34.10;;
3843;SDS011;1937;51.444;6.484;2024-02-28T07:03:59;68.47;;;29.90;;
3843;SDS011;1937;51.444;6.484;2024-02-28T07:06:26;120.30;;;31.53;;
3843;SDS011;1937;51.444;6.484;2024-02-28T07:08:52;110.37;;;31.23;;
3843;SDS011;1937;51.444;6.484;2024-02-28T07:11:19;99.63;;;30.20;;
3843;SDS011;1937;51.444;6.484;2024-02-28T07:13:46;149.10;;;34.70;;
3843;SDS011;1937;51.444;6.484;2024-02-28T07:16:14;149.10;;;35.03;;
3843;SDS011;1937;51.444;6.484;2024-02-28T07:18:41;67.40;;;27.57;;
3843;SDS011;1937;51.444;6.484;2024-02-28T07:21:07;105.23;;;29.50;;
3843;SDS011;1937;51.444;6.484;2024-02-28T07:23:34;93.43;;;28.40;;
3843;SDS011;1937;51.444;6.484;2024-02-28T07:26:00;90.03;;;29.80;;
3843;SDS011;1937;51.444;6.484;2024-02-28T07:28:27;100.70;;;29.13;;
3843;SDS011;1937;51.444;6.484;2024-02-28T07:30:53;109.93;;;31.50;;
3843;SDS011;1937;51.444;6.484;2024-02-28T07:33:21;101.97;;;30.23;;
3843;SDS011;1937;51.444;6.484;2024-02-28T07:35:48;80.63;;;29.70;;
3843;SDS011;1937;51.444;6.484;2024-02-28T07:38:15;109.07;;;29.30;;
3843;SDS011;1937;51.444;6.484;2024-02-28T07:40:42;123.23;;;28.70;;
3843;SDS011;1937;51.444;6.484;2024-02-28T07:43:09;102.10;;;33.10;;
3843;SDS011;1937;51.444;6.484;2024-02-28T07:45:35;90.13;;;28.67;;
3843;SDS011;1937;51.444;6.484;2024-02-28T07:48:02;79.80;;;28.10;;
3843;SDS011;1937;51.444;6.484;2024-02-28T07:50:31;80.90;;;28.73;;
3843;SDS011;1937;51.444;6.484;2024-02-28T07:52:57;81.13;;;29.10;;
3843;SDS011;1937;51.444;6.484;2024-02-28T07:55:24;84.67;;;26.33;;
3843;SDS011;1937;51.444;6.484;2024-02-28T07:57:51;92.93;;;30.00;;
3843;SDS011;1937;51.444;6.484;2024-02-28T08:00:18;93.03;;;26.70;;
3843;SDS011;1937;51.444;6.484;2024-02-28T08:02:45;81.83;;;28.00;;
3843;SDS011;1937;51.444;6.484;2024-02-28T08:05:13;92.77;;;26.57;;
3843;SDS011;1937;51.444;6.484;2024-02-28T08:07:41;85.33;;;26.27;;
3843;SDS011;1937;51.444;6.484;2024-02-28T08:10:08;83.40;;;27.47;;
3843;SDS011;1937;51.444;6.484;2024-02-28T08:12:36;89.03;;;28.50;;
3843;SDS011;1937;51.444;6.484;2024-02-28T08:15:03;77.10;;;28.10;;
3843;SDS011;1937;51.444;6.484;2024-02-28T08:17:30;94.90;;;28.90;;
3843;SDS011;1937;51.444;6.484;2024-02-28T08:19:57;100.90;;;32.60;;
3843;SDS011;1937;51.444;6.484;2024-02-28T08:22:23;99.70;;;29.93;;
3843;SDS011;1937;51.444;6.484;2024-02-28T08:24:52;96.47;;;32.23;;
3843;SDS011;1937;51.444;6.484;2024-02-28T08:27:18;99.90;;;32.30;;
3843;SDS011;1937;51.444;6.484;2024-02-28T08:29:48;105.53;;;29.90;;
3843;SDS011;1937;51.444;6.484;2024-02-28T08:32:15;94.87;;;29.17;;
3843;SDS011;1937;51.444;6.484;2024-02-28T08:34:43;103.10;;;30.67;;
3843;SDS011;1937;51.444;6.484;2024-02-28T08:37:10;113.87;;;32.60;;
3843;SDS011;1937;51.444;6.484;2024-02-28T08:39:37;126.63;;;35.47;;
3843;SDS011;1937;51.444;6.484;2024-02-28T08:42:05;105.47;;;31.00;;
3843;SDS011;1937;51.444;6.484;2024-02-28T08:44:32;100.17;;;31.20;;
3843;SDS011;1937;51.444;6.484;2024-02-28T08:46:58;114.60;;;34.10;;
3843;SDS011;1937;51.444;6.484;2024-02-28T08:49:25;101.50;;;33.40;;
3843;SDS011;1937;51.444;6.484;2024-02-28T08:51:52;117.87;;;32.90;;
3843;SDS011;1937;51.444;6.484;2024-02-28T08:54:18;126.70;;;35.17;;
3843;SDS011;1937;51.444;6.484;2024-02-28T08:56:45;126.40;;;34.97;;
3843;SDS011;1937;51.444;6.484;2024-02-28T08:59:13;120.40;;;33.70;;
3843;SDS011;1937;51.444;6.484;2024-02-28T09:01:39;108.27;;;34.97;;
3843;SDS011;1937;51.444;6.484;2024-02-28T09:04:07;128.30;;;36.33;;
3843;SDS011;1937;51.444;6.484;2024-02-28T09:06:33;104.60;;;34.37;;
3843;SDS011;1937;51.444;6.484;2024-02-28T09:09:00;128.27;;;38.13;;
3843;SDS011;1937;51.444;6.484;2024-02-28T09:11:26;122.83;;;35.80;;
3843;SDS011;1937;51.444;6.484;2024-02-28T09:13:53;102.33;;;32.03;;
3843;SDS011;1937;51.444;6.484;2024-02-28T09:16:21;118.03;;;35.20;;
3843;SDS011;1937;51.444;6.484;2024-02-28T09:18:47;116.87;;;37.30;;
3843;SDS011;1937;51.444;6.484;2024-02-28T09:21:14;121.57;;;34.83;;
3843;SDS011;1937;51.444;6.484;2024-02-28T09:23:43;106.60;;;35.03;;
3843;SDS011;1937;51.444;6.484;2024-02-28T09:26:09;115.57;;;38.37;;
3843;SDS011;1937;51.444;6.484;2024-02-28T09:28:36;91.40;;;31.00;;
3843;SDS011;1937;51.444;6.484;2024-02-28T09:31:03;100.07;;;34.30;;
3843;SDS011;1937;51.444;6.484;2024-02-28T09:33:31;102.73;;;32.37;;
3843;SDS011;1937;51.444;6.484;2024-02-28T09:35:57;97.67;;;31.67;;
3843;SDS011;1937;51.444;6.484;2024-02-28T09:38:24;89.63;;;30.90;;
3843;SDS011;1937;51.444;6.484;2024-02-28T09:40:51;98.03;;;33.10;;
3843;SDS011;1937;51.444;6.484;2024-02-28T09:43:19;70.03;;;29.67;;
3843;SDS011;1937;51.444;6.484;2024-02-28T09:45:54;99.50;;;33.23;;
3843;SDS011;1937;51.444;6.484;2024-02-28T09:48:25;88.33;;;29.77;;
3843;SDS011;1937;51.444;6.484;2024-02-28T09:50:55;86.00;;;30.00;;
3843;SDS011;1937;51.444;6.484;2024-02-28T09:53:23;77.30;;;29.37;;
3843;SDS011;1937;51.444;6.484;2024-02-28T09:55:50;85.63;;;27.23;;
3843;SDS011;1937;51.444;6.484;2024-02-28T09:58:17;78.30;;;28.27;;
3843;SDS011;1937;51.444;6.484;2024-02-28T10:00:46;73.47;;;29.00;;
3843;SDS011;1937;51.444;6.484;2024-02-28T10:03:13;80.37;;;27.77;;
3843;SDS011;1937;51.444;6.484;2024-02-28T10:05:44;73.90;;;28.40;;
3843;SDS011;1937;51.444;6.484;2024-02-28T10:08:13;75.27;;;26.57;;
3843;SDS011;1937;51.444;6.484;2024-02-28T10:10:44;70.23;;;27.93;;
3843;SDS011;1937;51.444;6.484;2024-02-28T10:13:12;65.33;;;25.33;;
3843;SDS011;1937;51.444;6.484;2024-02-28T10:15:39;76.13;;;28.93;;
3843;SDS011;1937;51.444;6.484;2024-02-28T10:18:05;63.53;;;27.13;;
3843;SDS011;1937;51.444;6.484;2024-02-28T10:20:32;66.57;;;27.80;;
3843;SDS011;1937;51.444;6.484;2024-02-28T10:22:59;56.33;;;23.97;;
3843;SDS011;1937;51.444;6.484;2024-02-28T10:25:27;57.77;;;25.33;;
3843;SDS011;1937;51.444;6.484;2024-02-28T10:27:58;60.43;;;23.83;;
3843;SDS011;1937;51.444;6.484;2024-02-28T10:30:25;66.13;;;23.40;;
3843;SDS011;1937;51.444;6.484;2024-02-28T10:32:52;57.93;;;23.57;;
3843;SDS011;1937;51.444;6.484;2024-02-28T10:35:19;66.63;;;23.87;;
3843;SDS011;1937;51.444;6.484;2024-02-28T10:37:51;52.73;;;21.80;;
3843;SDS011;1937;51.444;6.484;2024-02-28T10:40:20;68.67;;;22.03;;
3843;SDS011;1937;51.444;6.484;2024-02-28T10:42:48;46.67;;;20.50;;
3843;SDS011;1937;51.444;6.484;2024-02-28T10:45:16;53.07;;;21.80;;
3843;SDS011;1937;51.444;6.484;2024-02-28T10:47:43;46.33;;;18.83;;
3843;SDS011;1937;51.444;6.484;2024-02-28T10:50:11;46.57;;;19.37;;
3843;SDS011;1937;51.444;6.484;2024-02-28T10:52:42;49.37;;;21.00;;
3843;SDS011;1937;51.444;6.484;2024-02-28T10:55:10;44.83;;;18.30;;
3843;SDS011;1937;51.444;6.484;2024-02-28T10:57:39;47.70;;;19.30;;
3843;SDS011;1937;51.444;6.484;2024-02-28T11:00:09;52.70;;;22.93;;
3843;SDS011;1937;51.444;6.484;2024-02-28T11:02:37;56.07;;;20.67;;
3843;SDS011;1937;51.444;6.484;2024-02-28T11:05:04;57.10;;;22.47;;
3843;SDS011;1937;51.444;6.484;2024-02-28T11:07:31;58.40;;;21.97;;
3843;SDS011;1937;51.444;6.484;2024-02-28T11:10:03;60.90;;;24.03;;
3843;SDS011;1937;51.444;6.484;2024-02-28T11:12:31;42.80;;;20.33;;
3843;SDS011;1937;51.444;6.484;2024-02-28T11:14:58;50.37;;;21.80;;
3843;SDS011;1937;51.444;6.484;2024-02-28T11:17:27;56.67;;;23.00;;
3843;SDS011;1937;51.444;6.484;2024-02-28T11:19:54;66.90;;;24.07;;
3843;SDS011;1937;51.444;6.484;2024-02-28T11:22:21;63.57;;;23.00;;
3843;SDS011;1937;51.444;6.484;2024-02-28T11:24:48;58.40;;;23.50;;
3843;SDS011;1937;51.444;6.484;2024-02-28T11:27:20;60.87;;;23.07;;
3843;SDS011;1937;51.444;6.484;2024-02-28T11:29:46;56.40;;;22.53;;
3843;SDS011;1937;51.444;6.484;2024-02-28T11:32:14;57.27;;;23.93;;
3843;SDS011;1937;51.444;6.484;2024-02-28T11:34:42;51.10;;;22.40;;
3843;SDS011;1937;51.444;6.484;2024-02-28T11:37:10;53.37;;;22.00;;
3843;SDS011;1937;51.444;6.484;2024-02-28T11:39:37;44.80;;;20.13;;
3843;SDS011;1937;51.444;6.484;2024-02-28T11:42:10;57.53;;;22.87;;
3843;SDS011;1937;51.444;6.484;2024-02-28T11:44:38;45.27;;;20.83;;
3843;SDS011;1937;51.444;6.484;2024-02-28T11:47:05;47.83;;;20.90;;
3843;SDS011;1937;51.444;6.484;2024-02-28T11:49:34;56.50;;;23.83;;
3843;SDS011;1937;51.444;6.484;2024-02-28T11:52:02;57.50;;;21.60;;
3843;SDS011;1937;51.444;6.484;2024-02-28T11:54:29;51.07;;;23.60;;
3843;SDS011;1937;51.444;6.484;2024-02-28T11:56:55;45.90;;;19.63;;
3843;SDS011;1937;51.444;6.484;2024-02-28T11:59:22;45.70;;;20.57;;
3843;SDS011;1937;51.444;6.484;2024-02-28T12:01:49;50.00;;;23.03;;
3843;SDS011;1937;51.444;6.484;2024-02-28T12:04:17;54.40;;;21.37;;
3843;SDS011;1937;51.444;6.484;2024-02-28T12:06:44;43.63;;;19.20;;
3843;SDS011;1937;51.444;6.484;2024-02-28T12:09:12;47.60;;;19.73;;
3843;SDS011;1937;51.444;6.484;2024-02-28T12:11:40;43.70;;;18.80;;
3843;SDS011;1937;51.444;6.484;2024-02-28T12:14:07;38.13;;;18.17;;
3843;SDS011;1937;51.444;6.484;2024-02-28T12:16:36;38.57;;;16.60;;
3843;SDS011;1937;51.444;6.484;2024-02-28T12:19:03;41.30;;;18.87;;
3843;SDS011;1937;51.444;6.484;2024-02-28T12:21:29;46.80;;;20.77;;
3843;SDS011;1937;51.444;6.484;2024-02-28T12:23:56;38.43;;;18.23;;
3843;SDS011;1937;51.444;6.484;2024-02-28T12:26:24;42.53;;;18.70;;
3843;SDS011;1937;51.444;6.484;2024-02-28T12:28:53;44.20;;;18.57;;
3843;SDS011;1937;51.444;6.484;2024-02-28T12:31:19;35.70;;;16.57;;
3843;SDS011;1937;51.444;6.484;2024-02-28T12:33:47;46.17;;;19.67;;
3843;SDS011;1937;51.444;6.484;2024-02-28T12:36:13;46.93;;;19.93;;
3843;SDS011;1937;51.444;6.484;2024-02-28T12:38:40;36.17;;;17.70;;
3843;SDS011;1937;51.444;6.484;2024-02-28T12:41:07;39.67;;;18.57;;
3843;SDS011;1937;51.444;6.484;2024-02-28T12:43:35;37.50;;;17.90;;
3843;SDS011;1937;51.444;6.484;2024-02-28T12:46:02;42.27;;;19.03;;
3843;SDS011;1937;51.444;6.484;2024-02-28T12:48:29;37.97;;;17.50;;
3843;SDS011;1937;51.444;6.484;2024-02-28T12:50:56;42.70;;;18.33;;
3843;SDS011;1937;51.444;6.484;2024-02-28T12:53:23;55.10;;;20.50;;
3843;SDS011;1937;51.444;6.484;2024-02-28T12:55:50;38.20;;;18.50;;
3843;SDS011;1937;51.444;6.484;2024-02-28T12:58:16;41.77;;;18.93;;
3843;SDS011;1937;51.444;6.484;2024-02-28T13:00:44;34.33;;;16.67;;
3843;SDS011;1937;51.444;6.484;2024-02-28T13:03:11;37.97;;;17.13;;
3843;SDS011;1937;51.444;6.484;2024-02-28T13:05:37;44.00;;;19.27;;
3843;SDS011;1937;51.444;6.484;2024-02-28T13:08:03;42.57;;;20.23;;
3843;SDS011;1937;51.444;6.484;2024-02-28T13:10:30;35.57;;;18.17;;
3843;SDS011;1937;51.444;6.484;2024-02-28T13:12:59;38.13;;;16.50;;
3843;SDS011;1937;51.444;6.484;2024-02-28T13:15:26;39.27;;;18.00;;
3843;SDS011;1937;51.444;6.484;2024-02-28T13:20:45;36.00;;;16.70;;
3843;SDS011;1937;51.444;6.484;2024-02-28T13:23:12;42.27;;;16.63;;
3843;SDS011;1937;51.444;6.484;2024-02-28T13:25:39;42.57;;;18.10;;
3843;SDS011;1937;51.444;6.484;2024-02-28T13:28:05;39.13;;;18.60;;
3843;SDS011;1937;51.444;6.484;2024-02-28T13:30:32;43.00;;;18.53;;
3843;SDS011;1937;51.444;6.484;2024-02-28T13:33:00;35.57;;;15.80;;
3843;SDS011;1937;51.444;6.484;2024-02-28T13:35:28;36.37;;;16.67;;
3843;SDS011;1937;51.444;6.484;2024-02-28T13:37:55;31.93;;;15.47;;
3843;SDS011;1937;51.444;6.484;2024-02-28T13:40:25;34.40;;;17.40;;
3843;SDS011;1937;51.444;6.484;2024-02-28T13:42:52;36.23;;;15.70;;
3843;SDS011;1937;51.444;6.484;2024-02-28T13:45:18;35.77;;;16.30;;
3843;SDS011;1937;51.444;6.484;2024-02-28T13:47:45;36.60;;;16.33;;
3843;SDS011;1937;51.444;6.484;2024-02-28T13:50:11;32.43;;;14.40;;
3843;SDS011;1937;51.444;6.484;2024-02-28T13:52:40;30.70;;;15.87;;
3843;SDS011;1937;51.444;6.484;2024-02-28T13:55:07;36.30;;;15.83;;
3843;SDS011;1937;51.444;6.484;2024-02-28T13:57:34;27.83;;;14.30;;
3843;SDS011;1937;51.444;6.484;2024-02-28T14:00:00;33.53;;;15.57;;
3843;SDS011;1937;51.444;6.484;2024-02-28T14:02:31;31.10;;;15.10;;
3843;SDS011;1937;51.444;6.484;2024-02-28T14:04:58;31.50;;;14.90;;
3843;SDS011;1937;51.444;6.484;2024-02-28T14:07:25;37.20;;;17.33;;
3843;SDS011;1937;51.444;6.484;2024-02-28T14:09:54;30.13;;;15.30;;
3843;SDS011;1937;51.444;6.484;2024-02-28T14:12:22;37.47;;;15.67;;
3843;SDS011;1937;51.444;6.484;2024-02-28T14:14:48;34.00;;;15.63;;
3843;SDS011;1937;51.444;6.484;2024-02-28T14:17:15;33.13;;;15.23;;
3843;SDS011;1937;51.444;6.484;2024-02-28T14:19:41;33.83;;;16.37;;
3843;SDS011;1937;51.444;6.484;2024-02-28T14:22:08;35.00;;;15.13;;
3843;SDS011;1937;51.444;6.484;2024-02-28T14:24:36;31.03;;;15.30;;
3843;SDS011;1937;51.444;6.484;2024-02-28T14:27:05;29.07;;;15.00;;
3843;SDS011;1937;51.444;6.484;2024-02-28T14:29:32;32.10;;;14.57;;
3843;SDS011;1937;51.444;6.484;2024-02-28T14:31:58;33.20;;;16.07;;
3843;SDS011;1937;51.444;6.484;2024-02-28T14:34:25;28.87;;;13.60;;
3843;SDS011;1937;51.444;6.484;2024-02-28T14:36:54;31.03;;;15.00;;
3843;SDS011;1937;51.444;6.484;2024-02-28T14:39:20;25.53;;;12.53;;
3843;SDS011;1937;51.444;6.484;2024-02-28T14:41:47;28.17;;;14.77;;
3843;SDS011;1937;51.444;6.484;2024-02-28T14:44:15;32.23;;;13.90;;